sensor_id;sensor_type;location;lat;lon;timestamp;P1;durP1;ratioP1;P2;durP2;ratioP2
31390;SDS011;18022;45.492;11.548;2024-02-21T00:02:21;84.38;;;50.53;;
31390;SDS011;18022;45.492;11.548;2024-02-21T00:04:50;82.18;;;49.55;;
31390;SDS011;18022;45.492;11.548;2024-02-21T00:07:28;79.13;;;49.20;;
31390;SDS011;18022;45.492;11.548;2024-02-21T00:09:54;79.63;;;48.65;;
31390;SDS011;18022;45.492;11.548;2024-02-21T00:15:43;77.28;;;49.60;;
31390;SDS011;18022;45.492;11.548;2024-02-21T00:18:08;84.80;;;49.25;;
31390;SDS011;18022;45.492;11.548;2024-02-21T00:23:43;84.47;;;51.45;;
31390;SDS011;18022;45.492;11.548;2024-02-21T00:39:50;85.75;;;52.10;;
31390;SDS011;18022;45.492;11.548;2024-02-21T00:42:34;84.68;;;52.08;;
31390;SDS011;18022;45.492;11.548;2024-02-21T01:04:48;76.63;;;46.80;;
31390;SDS011;18022;45.492;11.548;2024-02-21T01:07:14;79.50;;;47.88;;
31390;SDS011;18022;45.492;11.548;2024-02-21T01:09:43;75.68;;;46.42;;
31390;SDS011;18022;45.492;11.548;2024-02-21T01:12:18;74.05;;;47.08;;
31390;SDS011;18022;45.492;11.548;2024-02-21T01:18:06;79.97;;;50.33;;
31390;SDS011;18022;45.492;11.548;2024-02-21T01:20:31;82.70;;;49.35;;
31390;SDS011;18022;45.492;11.548;2024-02-21T01:22:57;80.38;;;50.58;;
31390;SDS011;18022;45.492;11.548;2024-02-21T01:25:23;87.35;;;51.40;;
31390;SDS011;18022;45.492;11.548;2024-02-21T01:27:48;70.68;;;44.08;;
31390;SDS011;18022;45.492;11.548;2024-02-21T01:30:14;70.97;;;45.00;;
31390;SDS011;18022;45.492;11.548;2024-02-21T01:32:40;63.53;;;42.60;;
31390;SDS011;18022;45.492;11.548;2024-02-21T01:35:06;63.58;;;41.58;;
31390;SDS011;18022;45.492;11.548;2024-02-21T01:37:32;56.72;;;38.33;;
31390;SDS011;18022;45.492;11.548;2024-02-21T01:39:58;65.05;;;41.95;;
31390;SDS011;18022;45.492;11.548;2024-02-21T01:42:24;56.40;;;37.58;;
31390;SDS011;18022;45.492;11.548;2024-02-21T01:44:50;58.10;;;37.30;;
31390;SDS011;18022;45.492;11.548;2024-02-21T01:47:16;60.40;;;40.10;;
31390;SDS011;18022;45.492;11.548;2024-02-21T01:49:42;65.78;;;41.00;;
31390;SDS011;18022;45.492;11.548;2024-02-21T01:52:08;56.03;;;38.75;;
31390;SDS011;18022;45.492;11.548;2024-02-21T01:54:37;46.92;;;33.95;;
31390;SDS011;18022;45.492;11.548;2024-02-21T01:57:03;52.03;;;36.20;;
31390;SDS011;18022;45.492;11.548;2024-02-21T01:59:29;51.15;;;34.70;;
31390;SDS011;18022;45.492;11.548;2024-02-21T02:01:55;60.33;;;38.92;;
31390;SDS011;18022;45.492;11.548;2024-02-21T02:04:22;59.72;;;38.55;;
31390;SDS011;18022;45.492;11.548;2024-02-21T02:06:50;56.70;;;37.13;;
31390;SDS011;18022;45.492;11.548;2024-02-21T02:09:16;58.40;;;38.22;;
31390;SDS011;18022;45.492;11.548;2024-02-21T02:11:42;57.80;;;39.58;;
31390;SDS011;18022;45.492;11.548;2024-02-21T02:14:08;61.22;;;39.65;;
31390;SDS011;18022;45.492;11.548;2024-02-21T02:16:34;55.78;;;36.53;;
31390;SDS011;18022;45.492;11.548;2024-02-21T02:18:59;55.10;;;37.17;;
31390;SDS011;18022;45.492;11.548;2024-02-21T02:21:35;54.67;;;34.72;;
31390;SDS011;18022;45.492;11.548;2024-02-21T02:24:06;53.47;;;35.58;;
31390;SDS011;18022;45.492;11.548;2024-02-21T02:26:32;45.30;;;30.42;;
31390;SDS011;18022;45.492;11.548;2024-02-21T02:28:58;47.80;;;32.03;;
31390;SDS011;18022;45.492;11.548;2024-02-21T02:31:26;48.88;;;30.88;;
31390;SDS011;18022;45.492;11.548;2024-02-21T02:33:51;47.30;;;31.42;;
31390;SDS011;18022;45.492;11.548;2024-02-21T02:36:17;44.03;;;30.23;;
31390;SDS011;18022;45.492;11.548;2024-02-21T02:38:43;44.03;;;30.38;;
31390;SDS011;18022;45.492;11.548;2024-02-21T02:41:09;48.58;;;32.38;;
31390;SDS011;18022;45.492;11.548;2024-02-21T02:43:34;45.13;;;30.17;;
31390;SDS011;18022;45.492;11.548;2024-02-21T02:46:01;38.22;;;26.73;;
31390;SDS011;18022;45.492;11.548;2024-02-21T02:48:27;37.15;;;27.30;;
31390;SDS011;18022;45.492;11.548;2024-02-21T02:50:53;45.33;;;29.58;;
31390;SDS011;18022;45.492;11.548;2024-02-21T02:53:19;44.40;;;30.42;;
31390;SDS011;18022;45.492;11.548;2024-02-21T02:55:44;46.10;;;31.70;;
31390;SDS011;18022;45.492;11.548;2024-02-21T02:58:10;47.90;;;31.23;;
31390;SDS011;18022;45.492;11.548;2024-02-21T03:00:36;49.83;;;31.75;;
31390;SDS011;18022;45.492;11.548;2024-02-21T03:03:01;46.83;;;31.80;;
31390;SDS011;18022;45.492;11.548;2024-02-21T03:05:30;47.95;;;31.75;;
31390;SDS011;18022;45.492;11.548;2024-02-21T03:07:56;47.30;;;30.70;;
31390;SDS011;18022;45.492;11.548;2024-02-21T03:10:21;46.90;;;30.65;;
31390;SDS011;18022;45.492;11.548;2024-02-21T03:12:47;45.78;;;30.17;;
31390;SDS011;18022;45.492;11.548;2024-02-21T03:15:13;44.53;;;29.23;;
31390;SDS011;18022;45.492;11.548;2024-02-21T03:17:39;38.30;;;26.88;;
31390;SDS011;18022;45.492;11.548;2024-02-21T03:20:05;48.03;;;29.77;;
31390;SDS011;18022;45.492;11.548;2024-02-21T03:22:34;36.50;;;27.15;;
31390;SDS011;18022;45.492;11.548;2024-02-21T03:25:01;37.33;;;26.45;;
31390;SDS011;18022;45.492;11.548;2024-02-21T03:27:26;39.40;;;27.02;;
31390;SDS011;18022;45.492;11.548;2024-02-21T03:29:52;42.90;;;28.50;;
31390;SDS011;18022;45.492;11.548;2024-02-21T03:32:18;41.30;;;28.27;;
31390;SDS011;18022;45.492;11.548;2024-02-21T03:34:43;42.58;;;29.52;;
31390;SDS011;18022;45.492;11.548;2024-02-21T03:37:09;43.17;;;28.92;;
31390;SDS011;18022;45.492;11.548;2024-02-21T03:39:35;45.10;;;31.17;;
31390;SDS011;18022;45.492;11.548;2024-02-21T03:42:01;52.72;;;30.80;;
31390;SDS011;18022;45.492;11.548;2024-02-21T03:46:58;43.53;;;27.42;;
31390;SDS011;18022;45.492;11.548;2024-02-21T03:49:25;40.05;;;26.65;;
31390;SDS011;18022;45.492;11.548;2024-02-21T03:51:51;44.58;;;28.55;;
31390;SDS011;18022;45.492;11.548;2024-02-21T03:54:17;42.80;;;27.58;;
31390;SDS011;18022;45.492;11.548;2024-02-21T03:56:43;44.75;;;27.98;;
31390;SDS011;18022;45.492;11.548;2024-02-21T03:59:09;42.92;;;28.67;;
31390;SDS011;18022;45.492;11.548;2024-02-21T04:01:35;36.22;;;24.80;;
31390;SDS011;18022;45.492;11.548;2024-02-21T04:04:01;40.83;;;27.67;;
31390;SDS011;18022;45.492;11.548;2024-02-21T04:06:27;37.90;;;26.35;;
31390;SDS011;18022;45.492;11.548;2024-02-21T04:08:53;45.58;;;28.88;;
31390;SDS011;18022;45.492;11.548;2024-02-21T04:11:19;40.33;;;27.42;;
31390;SDS011;18022;45.492;11.548;2024-02-21T04:13:45;40.75;;;27.10;;
31390;SDS011;18022;45.492;11.548;2024-02-21T04:16:13;43.95;;;28.55;;
31390;SDS011;18022;45.492;11.548;2024-02-21T04:18:40;46.80;;;26.35;;
31390;SDS011;18022;45.492;11.548;2024-02-21T04:21:05;38.58;;;25.77;;
31390;SDS011;18022;45.492;11.548;2024-02-21T04:23:31;39.83;;;26.45;;
31390;SDS011;18022;45.492;11.548;2024-02-21T04:25:57;41.33;;;26.27;;
31390;SDS011;18022;45.492;11.548;2024-02-21T04:28:22;41.47;;;27.10;;
31390;SDS011;18022;45.492;11.548;2024-02-21T04:30:48;49.67;;;28.08;;
31390;SDS011;18022;45.492;11.548;2024-02-21T04:33:14;39.05;;;27.40;;
31390;SDS011;18022;45.492;11.548;2024-02-21T04:35:39;43.25;;;27.98;;
31390;SDS011;18022;45.492;11.548;2024-02-21T04:38:05;42.30;;;26.60;;
31390;SDS011;18022;45.492;11.548;2024-02-21T04:40:31;41.42;;;27.48;;
31390;SDS011;18022;45.492;11.548;2024-02-21T04:42:57;43.35;;;27.55;;
31390;SDS011;18022;45.492;11.548;2024-02-21T04:45:23;33.70;;;23.27;;
31390;SDS011;18022;45.492;11.548;2024-02-21T04:47:49;30.90;;;21.92;;
31390;SDS011;18022;45.492;11.548;2024-02-21T04:50:14;28.52;;;20.90;;
31390;SDS011;18022;45.492;11.548;2024-02-21T04:52:40;26.67;;;19.95;;
31390;SDS011;18022;45.492;11.548;2024-02-21T04:55:07;28.15;;;20.30;;
31390;SDS011;18022;45.492;11.548;2024-02-21T04:57:33;32.15;;;22.23;;
31390;SDS011;18022;45.492;11.548;2024-02-21T04:59:58;34.58;;;24.40;;
31390;SDS011;18022;45.492;11.548;2024-02-21T05:02:24;35.30;;;22.83;;
31390;SDS011;18022;45.492;11.548;2024-02-21T05:04:51;38.23;;;24.97;;
31390;SDS011;18022;45.492;11.548;2024-02-21T05:07:17;35.05;;;23.65;;
31390;SDS011;18022;45.492;11.548;2024-02-21T05:09:44;31.67;;;22.60;;
31390;SDS011;18022;45.492;11.548;2024-02-21T05:12:10;33.28;;;21.63;;
31390;SDS011;18022;45.492;11.548;2024-02-21T05:14:36;33.53;;;21.63;;
31390;SDS011;18022;45.492;11.548;2024-02-21T05:17:02;31.25;;;21.80;;
31390;SDS011;18022;45.492;11.548;2024-02-21T05:19:31;31.17;;;20.27;;
31390;SDS011;18022;45.492;11.548;2024-02-21T05:21:56;25.00;;;18.15;;
31390;SDS011;18022;45.492;11.548;2024-02-21T05:24:23;27.23;;;17.05;;
31390;SDS011;18022;45.492;11.548;2024-02-21T05:26:49;25.67;;;18.13;;
31390;SDS011;18022;45.492;11.548;2024-02-21T05:29:15;29.02;;;18.40;;
31390;SDS011;18022;45.492;11.548;2024-02-21T05:34:18;31.50;;;20.33;;
31390;SDS011;18022;45.492;11.548;2024-02-21T05:36:44;33.55;;;21.60;;
31390;SDS011;18022;45.492;11.548;2024-02-21T05:39:10;35.15;;;22.35;;
31390;SDS011;18022;45.492;11.548;2024-02-21T05:41:36;31.92;;;21.17;;
31390;SDS011;18022;45.492;11.548;2024-02-21T05:44:02;32.38;;;21.02;;
31390;SDS011;18022;45.492;11.548;2024-02-21T05:46:28;28.65;;;19.38;;
31390;SDS011;18022;45.492;11.548;2024-02-21T05:48:54;25.92;;;18.20;;
31390;SDS011;18022;45.492;11.548;2024-02-21T05:51:19;26.77;;;18.77;;
31390;SDS011;18022;45.492;11.548;2024-02-21T05:53:45;29.83;;;18.58;;
31390;SDS011;18022;45.492;11.548;2024-02-21T05:56:11;28.85;;;19.52;;
31390;SDS011;18022;45.492;11.548;2024-02-21T05:58:38;25.70;;;18.48;;
31390;SDS011;18022;45.492;11.548;2024-02-21T06:01:04;28.50;;;19.33;;
31390;SDS011;18022;45.492;11.548;2024-02-21T06:03:31;37.33;;;24.33;;
31390;SDS011;18022;45.492;11.548;2024-02-21T06:05:57;32.70;;;21.65;;
31390;SDS011;18022;45.492;11.548;2024-02-21T06:08:24;26.77;;;18.52;;
31390;SDS011;18022;45.492;11.548;2024-02-21T06:10:49;28.50;;;18.65;;
31390;SDS011;18022;45.492;11.548;2024-02-21T06:13:19;28.30;;;19.50;;
31390;SDS011;18022;45.492;11.548;2024-02-21T06:15:51;28.42;;;18.80;;
31390;SDS011;18022;45.492;11.548;2024-02-21T06:18:17;28.27;;;19.17;;
31390;SDS011;18022;45.492;11.548;2024-02-21T06:20:43;31.05;;;21.17;;
31390;SDS011;18022;45.492;11.548;2024-02-21T06:23:09;30.27;;;19.63;;
31390;SDS011;18022;45.492;11.548;2024-02-21T06:25:36;20.73;;;14.17;;
31390;SDS011;18022;45.492;11.548;2024-02-21T06:28:02;33.25;;;21.20;;
31390;SDS011;18022;45.492;11.548;2024-02-21T06:30:37;31.60;;;20.40;;
31390;SDS011;18022;45.492;11.548;2024-02-21T06:33:14;29.45;;;19.58;;
31390;SDS011;18022;45.492;11.548;2024-02-21T06:36:09;28.73;;;19.42;;
31390;SDS011;18022;45.492;11.548;2024-02-21T06:38:55;30.95;;;20.58;;
31390;SDS011;18022;45.492;11.548;2024-02-21T06:41:21;26.67;;;19.77;;
31390;SDS011;18022;45.492;11.548;2024-02-21T06:43:47;29.40;;;19.30;;
31390;SDS011;18022;45.492;11.548;2024-02-21T06:46:27;27.98;;;18.90;;
31390;SDS011;18022;45.492;11.548;2024-02-21T06:48:54;29.50;;;18.15;;
31390;SDS011;18022;45.492;11.548;2024-02-21T06:51:21;26.13;;;18.77;;
31390;SDS011;18022;45.492;11.548;2024-02-21T06:53:47;33.20;;;19.20;;
31390;SDS011;18022;45.492;11.548;2024-02-21T06:56:14;27.93;;;18.63;;
31390;SDS011;18022;45.492;11.548;2024-02-21T06:58:40;25.55;;;18.15;;
31390;SDS011;18022;45.492;11.548;2024-02-21T07:01:06;30.13;;;18.65;;
31390;SDS011;18022;45.492;11.548;2024-02-21T07:03:32;27.95;;;19.08;;
31390;SDS011;18022;45.492;11.548;2024-02-21T07:05:58;24.80;;;18.80;;
31390;SDS011;18022;45.492;11.548;2024-02-21T07:08:23;18.48;;;12.07;;
31390;SDS011;18022;45.492;11.548;2024-02-21T07:10:49;25.95;;;18.50;;
31390;SDS011;18022;45.492;11.548;2024-02-21T07:13:15;26.45;;;18.90;;
31390;SDS011;18022;45.492;11.548;2024-02-21T07:15:41;26.85;;;18.73;;
31390;SDS011;18022;45.492;11.548;2024-02-21T07:18:07;29.15;;;19.45;;
31390;SDS011;18022;45.492;11.548;2024-02-21T07:20:33;24.98;;;18.38;;
31390;SDS011;18022;45.492;11.548;2024-02-21T07:22:59;24.38;;;16.92;;
31390;SDS011;18022;45.492;11.548;2024-02-21T07:25:24;27.17;;;18.42;;
31390;SDS011;18022;45.492;11.548;2024-02-21T07:27:50;26.90;;;18.27;;
31390;SDS011;18022;45.492;11.548;2024-02-21T07:30:16;26.55;;;17.23;;
31390;SDS011;18022;45.492;11.548;2024-02-21T07:32:42;23.17;;;16.95;;
31390;SDS011;18022;45.492;11.548;2024-02-21T07:35:07;22.92;;;17.15;;
31390;SDS011;18022;45.492;11.548;2024-02-21T07:37:37;26.88;;;17.27;;
31390;SDS011;18022;45.492;11.548;2024-02-21T07:40:04;24.98;;;17.50;;
31390;SDS011;18022;45.492;11.548;2024-02-21T07:42:31;24.77;;;17.45;;
31390;SDS011;18022;45.492;11.548;2024-02-21T07:44:56;24.13;;;17.35;;
31390;SDS011;18022;45.492;11.548;2024-02-21T07:47:22;27.38;;;17.42;;
31390;SDS011;18022;45.492;11.548;2024-02-21T07:49:48;24.48;;;17.45;;
31390;SDS011;18022;45.492;11.548;2024-02-21T07:52:14;24.45;;;17.38;;
31390;SDS011;18022;45.492;11.548;2024-02-21T07:54:40;23.65;;;16.73;;
31390;SDS011;18022;45.492;11.548;2024-02-21T07:57:06;26.60;;;17.38;;
31390;SDS011;18022;45.492;11.548;2024-02-21T07:59:32;27.25;;;18.73;;
31390;SDS011;18022;45.492;11.548;2024-02-21T08:01:58;24.98;;;16.70;;
31390;SDS011;18022;45.492;11.548;2024-02-21T08:04:24;22.95;;;15.45;;
31390;SDS011;18022;45.492;11.548;2024-02-21T08:06:53;19.92;;;14.27;;
31390;SDS011;18022;45.492;11.548;2024-02-21T08:09:24;20.90;;;14.73;;
31390;SDS011;18022;45.492;11.548;2024-02-21T08:11:49;22.00;;;15.55;;
31390;SDS011;18022;45.492;11.548;2024-02-21T08:14:15;22.58;;;13.93;;
31390;SDS011;18022;45.492;11.548;2024-02-21T08:16:42;20.23;;;14.07;;
31390;SDS011;18022;45.492;11.548;2024-02-21T08:19:08;17.65;;;12.40;;
31390;SDS011;18022;45.492;11.548;2024-02-21T08:21:35;16.07;;;12.03;;
31390;SDS011;18022;45.492;11.548;2024-02-21T08:24:01;17.42;;;12.60;;
31390;SDS011;18022;45.492;11.548;2024-02-21T08:26:26;18.55;;;12.63;;
31390;SDS011;18022;45.492;11.548;2024-02-21T08:28:55;15.38;;;11.43;;
31390;SDS011;18022;45.492;11.548;2024-02-21T08:31:23;18.15;;;13.20;;
31390;SDS011;18022;45.492;11.548;2024-02-21T08:33:56;15.85;;;12.30;;
31390;SDS011;18022;45.492;11.548;2024-02-21T08:36:27;13.65;;;10.50;;
31390;SDS011;18022;45.492;11.548;2024-02-21T08:38:56;17.65;;;12.40;;
31390;SDS011;18022;45.492;11.548;2024-02-21T08:41:23;20.95;;;12.50;;
31390;SDS011;18022;45.492;11.548;2024-02-21T08:43:50;15.35;;;11.88;;
31390;SDS011;18022;45.492;11.548;2024-02-21T08:46:16;17.08;;;12.05;;
31390;SDS011;18022;45.492;11.548;2024-02-21T08:48:43;13.98;;;11.38;;
31390;SDS011;18022;45.492;11.548;2024-02-21T08:51:11;14.10;;;10.90;;
31390;SDS011;18022;45.492;11.548;2024-02-21T08:53:37;16.58;;;11.35;;
31390;SDS011;18022;45.492;11.548;2024-02-21T08:56:03;15.90;;;10.85;;
31390;SDS011;18022;45.492;11.548;2024-02-21T08:58:29;13.02;;;10.02;;
31390;SDS011;18022;45.492;11.548;2024-02-21T09:00:56;13.55;;;9.77;;
31390;SDS011;18022;45.492;11.548;2024-02-21T09:03:22;14.57;;;9.80;;
31390;SDS011;18022;45.492;11.548;2024-02-21T09:05:48;12.20;;;8.95;;
31390;SDS011;18022;45.492;11.548;2024-02-21T09:08:14;12.82;;;9.73;;
31390;SDS011;18022;45.492;11.548;2024-02-21T09:10:39;14.20;;;9.98;;
31390;SDS011;18022;45.492;11.548;2024-02-21T09:13:05;11.27;;;8.80;;
31390;SDS011;18022;45.492;11.548;2024-02-21T09:15:33;10.95;;;7.78;;
31390;SDS011;18022;45.492;11.548;2024-02-21T09:17:58;12.50;;;8.77;;
31390;SDS011;18022;45.492;11.548;2024-02-21T09:20:24;11.43;;;7.97;;
31390;SDS011;18022;45.492;11.548;2024-02-21T09:22:50;8.48;;;6.85;;
31390;SDS011;18022;45.492;11.548;2024-02-21T09:25:17;10.97;;;6.10;;
31390;SDS011;18022;45.492;11.548;2024-02-21T09:27:44;7.25;;;5.63;;
31390;SDS011;18022;45.492;11.548;2024-02-21T09:30:10;9.23;;;6.25;;
31390;SDS011;18022;45.492;11.548;2024-02-21T09:32:37;7.30;;;5.40;;
31390;SDS011;18022;45.492;11.548;2024-02-21T09:35:03;6.60;;;5.10;;
31390;SDS011;18022;45.492;11.548;2024-02-21T09:37:32;6.47;;;4.40;;
31390;SDS011;18022;45.492;11.548;2024-02-21T09:39:58;6.28;;;4.47;;
31390;SDS011;18022;45.492;11.548;2024-02-21T09:42:26;7.55;;;4.55;;
31390;SDS011;18022;45.492;11.548;2024-02-21T09:48:15;6.45;;;4.38;;
31390;SDS011;18022;45.492;11.548;2024-02-21T09:50:33;6.05;;;4.30;;
31390;SDS011;18022;45.492;11.548;2024-02-21T09:53:01;5.50;;;3.92;;
31390;SDS011;18022;45.492;11.548;2024-02-21T09:55:29;4.57;;;3.63;;
31390;SDS011;18022;45.492;11.548;2024-02-21T09:57:59;7.40;;;4.82;;
31390;SDS011;18022;45.492;11.548;2024-02-21T10:00:30;4.57;;;3.50;;
31390;SDS011;18022;45.492;11.548;2024-02-21T10:06:47;3.53;;;2.92;;
31390;SDS011;18022;45.492;11.548;2024-02-21T10:09:28;3.20;;;2.83;;
31390;SDS011;18022;45.492;11.548;2024-02-21T10:12:07;4.57;;;3.33;;
31390;SDS011;18022;45.492;11.548;2024-02-21T10:14:34;5.57;;;3.75;;
31390;SDS011;18022;45.492;11.548;2024-02-21T10:17:00;4.43;;;3.35;;
31390;SDS011;18022;45.492;11.548;2024-02-21T10:19:26;3.58;;;3.17;;
31390;SDS011;18022;45.492;11.548;2024-02-21T10:22:05;4.60;;;3.40;;
31390;SDS011;18022;45.492;11.548;2024-02-21T10:24:33;4.10;;;3.03;;
31390;SDS011;18022;45.492;11.548;2024-02-21T10:27:03;4.40;;;2.72;;
31390;SDS011;18022;45.492;11.548;2024-02-21T10:29:32;4.47;;;2.97;;
31390;SDS011;18022;45.492;11.548;2024-02-21T10:32:12;3.95;;;3.10;;
31390;SDS011;18022;45.492;11.548;2024-02-21T10:34:39;3.03;;;2.60;;
31390;SDS011;18022;45.492;11.548;2024-02-21T10:37:06;3.97;;;2.83;;
31390;SDS011;18022;45.492;11.548;2024-02-21T10:39:33;2.55;;;2.05;;
31390;SDS011;18022;45.492;11.548;2024-02-21T10:42:01;2.55;;;2.30;;
31390;SDS011;18022;45.492;11.548;2024-02-21T10:44:31;3.80;;;2.60;;
31390;SDS011;18022;45.492;11.548;2024-02-21T10:46:58;5.03;;;3.20;;
31390;SDS011;18022;45.492;11.548;2024-02-21T10:49:24;4.20;;;3.22;;
31390;SDS011;18022;45.492;11.548;2024-02-21T10:54:35;4.18;;;3.47;;
31390;SDS011;18022;45.492;11.548;2024-02-21T10:57:08;5.97;;;3.80;;
31390;SDS011;18022;45.492;11.548;2024-02-21T10:59:37;4.47;;;3.80;;
31390;SDS011;18022;45.492;11.548;2024-02-21T11:02:05;4.07;;;3.60;;
31390;SDS011;18022;45.492;11.548;2024-02-21T11:04:31;4.90;;;4.07;;
31390;SDS011;18022;45.492;11.548;2024-02-21T11:07:02;5.25;;;3.90;;
31390;SDS011;18022;45.492;11.548;2024-02-21T11:09:30;5.05;;;4.05;;
31390;SDS011;18022;45.492;11.548;2024-02-21T11:12:02;5.30;;;3.60;;
31390;SDS011;18022;45.492;11.548;2024-02-21T11:14:30;7.72;;;4.95;;
31390;SDS011;18022;45.492;11.548;2024-02-21T11:17:14;3.88;;;3.42;;
31390;SDS011;18022;45.492;11.548;2024-02-21T11:19:45;5.93;;;3.75;;
31390;SDS011;18022;45.492;11.548;2024-02-21T11:22:14;5.50;;;4.22;;
31390;SDS011;18022;45.492;11.548;2024-02-21T11:24:44;5.93;;;4.68;;
31390;SDS011;18022;45.492;11.548;2024-02-21T11:29:42;9.00;;;4.93;;
31390;SDS011;18022;45.492;11.548;2024-02-21T11:32:16;8.00;;;4.63;;
31390;SDS011;18022;45.492;11.548;2024-02-21T11:34:54;6.32;;;4.28;;
31390;SDS011;18022;45.492;11.548;2024-02-21T11:37:20;5.95;;;4.85;;
31390;SDS011;18022;45.492;11.548;2024-02-21T11:39:46;8.20;;;5.30;;
31390;SDS011;18022;45.492;11.548;2024-02-21T11:42:14;9.02;;;6.00;;
31390;SDS011;18022;45.492;11.548;2024-02-21T11:44:39;9.95;;;5.18;;
31390;SDS011;18022;45.492;11.548;2024-02-21T11:47:07;8.05;;;5.40;;
31390;SDS011;18022;45.492;11.548;2024-02-21T11:49:37;7.30;;;5.88;;
31390;SDS011;18022;45.492;11.548;2024-02-21T11:52:06;8.35;;;5.82;;
31390;SDS011;18022;45.492;11.548;2024-02-21T11:54:32;8.57;;;5.75;;
31390;SDS011;18022;45.492;11.548;2024-02-21T11:56:59;6.80;;;5.20;;
31390;SDS011;18022;45.492;11.548;2024-02-21T11:59:26;8.25;;;5.88;;
31390;SDS011;18022;45.492;11.548;2024-02-21T12:01:52;11.25;;;6.25;;
31390;SDS011;18022;45.492;11.548;2024-02-21T12:04:18;8.85;;;6.40;;
31390;SDS011;18022;45.492;11.548;2024-02-21T12:06:45;7.57;;;5.22;;
31390;SDS011;18022;45.492;11.548;2024-02-21T12:09:15;8.80;;;5.55;;
31390;SDS011;18022;45.492;11.548;2024-02-21T12:11:41;9.88;;;6.00;;
31390;SDS011;18022;45.492;11.548;2024-02-21T12:14:07;7.18;;;5.95;;
31390;SDS011;18022;45.492;11.548;2024-02-21T12:16:34;7.65;;;5.68;;
31390;SDS011;18022;45.492;11.548;2024-02-21T12:19:03;7.45;;;5.75;;
31390;SDS011;18022;45.492;11.548;2024-02-21T12:21:30;9.35;;;6.47;;
31390;SDS011;18022;45.492;11.548;2024-02-21T12:26:23;8.80;;;6.70;;
31390;SDS011;18022;45.492;11.548;2024-02-21T12:28:49;13.88;;;6.78;;
31390;SDS011;18022;45.492;11.548;2024-02-21T12:31:15;10.07;;;7.15;;
31390;SDS011;18022;45.492;11.548;2024-02-21T12:33:43;10.43;;;7.78;;
31390;SDS011;18022;45.492;11.548;2024-02-21T12:36:09;13.65;;;8.45;;
31390;SDS011;18022;45.492;11.548;2024-02-21T12:38:36;10.55;;;8.43;;
31390;SDS011;18022;45.492;11.548;2024-02-21T12:41:02;12.55;;;8.93;;
31390;SDS011;18022;45.492;11.548;2024-02-21T12:43:28;19.73;;;11.45;;
31390;SDS011;18022;45.492;11.548;2024-02-21T12:45:54;19.63;;;11.25;;
31390;SDS011;18022;45.492;11.548;2024-02-21T12:48:19;17.88;;;12.45;;
31390;SDS011;18022;45.492;11.548;2024-02-21T12:50:49;19.80;;;14.02;;
31390;SDS011;18022;45.492;11.548;2024-02-21T12:53:16;16.88;;;11.43;;
31390;SDS011;18022;45.492;11.548;2024-02-21T12:55:44;12.88;;;9.85;;
31390;SDS011;18022;45.492;11.548;2024-02-21T12:58:10;15.90;;;9.97;;
31390;SDS011;18022;45.492;11.548;2024-02-21T13:00:36;21.38;;;10.18;;
31390;SDS011;18022;45.492;11.548;2024-02-21T13:03:03;18.05;;;12.88;;
31390;SDS011;18022;45.492;11.548;2024-02-21T13:05:28;13.82;;;9.77;;
31390;SDS011;18022;45.492;11.548;2024-02-21T13:07:54;14.27;;;9.55;;
31390;SDS011;18022;45.492;11.548;2024-02-21T13:10:20;11.50;;;7.15;;
31390;SDS011;18022;45.492;11.548;2024-02-21T13:12:46;11.48;;;8.02;;
31390;SDS011;18022;45.492;11.548;2024-02-21T13:15:12;12.55;;;8.43;;
31390;SDS011;18022;45.492;11.548;2024-02-21T13:17:38;18.73;;;12.15;;
31390;SDS011;18022;45.492;11.548;2024-02-21T13:20:04;8.32;;;6.43;;
31390;SDS011;18022;45.492;11.548;2024-02-21T13:22:30;9.80;;;6.85;;
31390;SDS011;18022;45.492;11.548;2024-02-21T13:24:56;17.38;;;11.15;;
31390;SDS011;18022;45.492;11.548;2024-02-21T13:27:23;30.23;;;14.63;;
31390;SDS011;18022;45.492;11.548;2024-02-21T13:29:49;21.27;;;14.77;;
31390;SDS011;18022;45.492;11.548;2024-02-21T13:32:15;18.55;;;13.02;;
31390;SDS011;18022;45.492;11.548;2024-02-21T13:34:41;17.33;;;10.68;;
31390;SDS011;18022;45.492;11.548;2024-02-21T13:37:07;15.05;;;10.98;;
31390;SDS011;18022;45.492;11.548;2024-02-21T13:39:34;14.30;;;10.65;;
31390;SDS011;18022;45.492;11.548;2024-02-21T13:42:01;14.63;;;11.07;;
31390;SDS011;18022;45.492;11.548;2024-02-21T13:44:29;21.35;;;15.10;;
31390;SDS011;18022;45.492;11.548;2024-02-21T13:46:55;23.92;;;15.40;;
31390;SDS011;18022;45.492;11.548;2024-02-21T13:49:20;22.27;;;14.40;;
31390;SDS011;18022;45.492;11.548;2024-02-21T13:51:46;18.67;;;13.30;;
31390;SDS011;18022;45.492;11.548;2024-02-21T13:54:12;23.33;;;13.52;;
31390;SDS011;18022;45.492;11.548;2024-02-21T13:56:42;20.23;;;12.70;;
31390;SDS011;18022;45.492;11.548;2024-02-21T13:59:08;19.98;;;14.40;;
31390;SDS011;18022;45.492;11.548;2024-02-21T14:01:34;21.02;;;14.98;;
31390;SDS011;18022;45.492;11.548;2024-02-21T14:04:00;24.65;;;15.18;;
31390;SDS011;18022;45.492;11.548;2024-02-21T14:06:27;22.45;;;15.77;;
31390;SDS011;18022;45.492;11.548;2024-02-21T14:08:52;24.33;;;15.90;;
31390;SDS011;18022;45.492;11.548;2024-02-21T14:11:18;24.38;;;16.33;;
31390;SDS011;18022;45.492;11.548;2024-02-21T14:13:44;22.58;;;15.30;;
31390;SDS011;18022;45.492;11.548;2024-02-21T14:16:10;25.65;;;18.25;;
31390;SDS011;18022;45.492;11.548;2024-02-21T14:18:41;25.20;;;17.63;;
31390;SDS011;18022;45.492;11.548;2024-02-21T14:21:07;25.52;;;16.15;;
31390;SDS011;18022;45.492;11.548;2024-02-21T14:23:35;22.13;;;15.90;;
31390;SDS011;18022;45.492;11.548;2024-02-21T14:26:04;24.52;;;16.25;;
31390;SDS011;18022;45.492;11.548;2024-02-21T14:28:31;21.27;;;14.73;;
31390;SDS011;18022;45.492;11.548;2024-02-21T14:30:58;21.85;;;15.32;;
31390;SDS011;18022;45.492;11.548;2024-02-21T14:33:25;20.50;;;14.55;;
31390;SDS011;18022;45.492;11.548;2024-02-21T14:35:52;21.90;;;15.25;;
31390;SDS011;18022;45.492;11.548;2024-02-21T14:38:18;25.13;;;14.20;;
31390;SDS011;18022;45.492;11.548;2024-02-21T14:40:44;18.15;;;13.45;;
31390;SDS011;18022;45.492;11.548;2024-02-21T14:43:10;20.00;;;13.80;;
31390;SDS011;18022;45.492;11.548;2024-02-21T14:45:36;18.83;;;14.27;;
31390;SDS011;18022;45.492;11.548;2024-02-21T14:48:03;27.05;;;14.00;;
31390;SDS011;18022;45.492;11.548;2024-02-21T14:50:30;19.77;;;13.93;;
31390;SDS011;18022;45.492;11.548;2024-02-21T14:52:55;22.23;;;14.90;;
31390;SDS011;18022;45.492;11.548;2024-02-21T14:55:21;21.98;;;14.70;;
31390;SDS011;18022;45.492;11.548;2024-02-21T14:57:48;20.55;;;14.23;;
31390;SDS011;18022;45.492;11.548;2024-02-21T15:00:13;20.40;;;14.25;;
31390;SDS011;18022;45.492;11.548;2024-02-21T15:02:39;19.70;;;14.35;;
31390;SDS011;18022;45.492;11.548;2024-02-21T15:05:05;20.15;;;13.38;;
31390;SDS011;18022;45.492;11.548;2024-02-21T15:07:32;19.92;;;13.30;;
31390;SDS011;18022;45.492;11.548;2024-02-21T15:09:58;18.30;;;13.55;;
31390;SDS011;18022;45.492;11.548;2024-02-21T15:12:24;16.92;;;12.57;;
31390;SDS011;18022;45.492;11.548;2024-02-21T15:14:50;20.88;;;13.75;;
31390;SDS011;18022;45.492;11.548;2024-02-21T15:17:16;18.77;;;12.73;;